sensor_id;sensor_type;location;lat;lon;timestamp;pressure;altitude;pressure_sealevel;temperature;humidity
85752;BME280;76192;39.766;2.716;2024-03-02T00:00:37;100921.61;;;8.34;59.52
85752;BME280;76192;39.766;2.716;2024-03-02T00:03:03;100921.98;;;8.34;59.76
85752;BME280;76192;39.766;2.716;2024-03-02T00:05:28;100927.53;;;8.36;58.94
85752;BME280;76192;39.766;2.716;2024-03-02T00:07:55;100920.17;;;8.38;59.53
85752;BME280;76192;39.766;2.716;2024-03-02T00:10:24;100923.17;;;8.40;59.91
85752;BME280;76192;39.766;2.716;2024-03-02T00:12:54;100924.10;;;8.41;59.47
85752;BME280;76192;39.766;2.716;2024-03-02T00:15:52;100930.15;;;8.43;59.26
85752;BME280;76192;39.766;2.716;2024-03-02T00:18:39;100931.28;;;8.45;59.55
85752;BME280;76192;39.766;2.716;2024-03-02T00:21:08;100925.04;;;8.46;59.47
85752;BME280;76192;39.766;2.716;2024-03-02T00:23:38;100922.36;;;8.47;59.62
85752;BME280;76192;39.766;2.716;2024-03-02T00:26:05;100925.33;;;8.49;59.84
85752;BME280;76192;39.766;2.716;2024-03-02T00:28:35;100921.50;;;8.50;60.44
85752;BME280;76192;39.766;2.716;2024-03-02T00:31:12;100921.87;;;8.51;60.33
85752;BME280;76192;39.766;2.716;2024-03-02T00:33:44;100922.27;;;8.52;61.37
85752;BME280;76192;39.766;2.716;2024-03-02T00:36:12;100916.71;;;8.53;61.04
85752;BME280;76192;39.766;2.716;2024-03-02T00:38:48;100919.89;;;8.55;60.11
85752;BME280;76192;39.766;2.716;2024-03-02T00:41:23;100922.08;;;8.58;59.89
85752;BME280;76192;39.766;2.716;2024-03-02T00:46:59;100923.52;;;8.66;60.53
85752;BME280;76192;39.766;2.716;2024-03-02T00:49:25;100926.08;;;8.69;61.57
85752;BME280;76192;39.766;2.716;2024-03-02T00:51:53;100916.34;;;8.72;61.17
85752;BME280;76192;39.766;2.716;2024-03-02T00:54:26;100913.67;;;8.73;60.91
85752;BME280;76192;39.766;2.716;2024-03-02T00:56:55;100912.05;;;8.74;61.46
85752;BME280;76192;39.766;2.716;2024-03-02T00:59:22;100909.36;;;8.75;61.60
85752;BME280;76192;39.766;2.716;2024-03-02T01:01:48;100909.35;;;8.74;61.37
85752;BME280;76192;39.766;2.716;2024-03-02T01:04:15;100911.19;;;8.74;60.96
85752;BME280;76192;39.766;2.716;2024-03-02T01:06:42;100906.23;;;8.74;60.77
85752;BME280;76192;39.766;2.716;2024-03-02T01:09:08;100906.33;;;8.72;61.00
85752;BME280;76192;39.766;2.716;2024-03-02T01:11:34;100907.58;;;8.70;61.00
85752;BME280;76192;39.766;2.716;2024-03-02T01:14:00;100903.61;;;8.68;61.63
85752;BME280;76192;39.766;2.716;2024-03-02T01:16:25;100903.70;;;8.67;61.60
85752;BME280;76192;39.766;2.716;2024-03-02T01:18:51;100900.42;;;8.66;61.42
85752;BME280;76192;39.766;2.716;2024-03-02T01:21:16;100907.73;;;8.66;61.57
85752;BME280;76192;39.766;2.716;2024-03-02T01:23:42;100907.66;;;8.65;61.12
85752;BME280;76192;39.766;2.716;2024-03-02T01:26:08;100899.40;;;8.63;61.12
85752;BME280;76192;39.766;2.716;2024-03-02T01:28:34;100893.77;;;8.62;61.32
85752;BME280;76192;39.766;2.716;2024-03-02T01:30:59;100896.98;;;8.62;61.26
85752;BME280;76192;39.766;2.716;2024-03-02T01:33:25;100894.33;;;8.60;61.13
85752;BME280;76192;39.766;2.716;2024-03-02T01:35:50;100892.05;;;8.59;61.48
85752;BME280;76192;39.766;2.716;2024-03-02T01:38:16;100889.85;;;8.59;61.58
85752;BME280;76192;39.766;2.716;2024-03-02T01:40:42;100881.80;;;8.58;61.76
85752;BME280;76192;39.766;2.716;2024-03-02T01:43:09;100877.38;;;8.58;61.52
85752;BME280;76192;39.766;2.716;2024-03-02T01:45:36;100870.88;;;8.57;61.17
85752;BME280;76192;39.766;2.716;2024-03-02T01:48:06;100867.16;;;8.57;60.94
85752;BME280;76192;39.766;2.716;2024-03-02T01:50:33;100866.71;;;8.59;61.08
85752;BME280;76192;39.766;2.716;2024-03-02T01:52:59;100863.05;;;8.60;61.10
85752;BME280;76192;39.766;2.716;2024-03-02T01:55:26;100851.23;;;8.58;61.72
85752;BME280;76192;39.766;2.716;2024-03-02T01:57:52;100850.68;;;8.58;62.42
85752;BME280;76192;39.766;2.716;2024-03-02T02:00:20;100850.80;;;8.56;62.38
85752;BME280;76192;39.766;2.716;2024-03-02T02:02:47;100850.42;;;8.56;62.25
85752;BME280;76192;39.766;2.716;2024-03-02T02:05:13;100847.61;;;8.54;62.37
85752;BME280;76192;39.766;2.716;2024-03-02T02:07:40;100846.46;;;8.52;62.49
85752;BME280;76192;39.766;2.716;2024-03-02T02:10:07;100851.30;;;8.50;62.53
85752;BME280;76192;39.766;2.716;2024-03-02T02:12:33;100845.54;;;8.47;62.79
85752;BME280;76192;39.766;2.716;2024-03-02T02:14:59;100842.58;;;8.42;63.02
85752;BME280;76192;39.766;2.716;2024-03-02T02:17:24;100835.23;;;8.38;63.40
85752;BME280;76192;39.766;2.716;2024-03-02T02:19:50;100828.42;;;8.35;63.87
85752;BME280;76192;39.766;2.716;2024-03-02T02:22:15;100819.22;;;8.34;63.74
85752;BME280;76192;39.766;2.716;2024-03-02T02:24:41;100820.26;;;8.35;63.79
85752;BME280;76192;39.766;2.716;2024-03-02T02:27:08;100817.69;;;8.37;63.74
85752;BME280;76192;39.766;2.716;2024-03-02T02:29:34;100814.88;;;8.42;63.81
85752;BME280;76192;39.766;2.716;2024-03-02T02:32:00;100812.05;;;8.46;63.70
85752;BME280;76192;39.766;2.716;2024-03-02T02:34:26;100804.48;;;8.51;63.83
85752;BME280;76192;39.766;2.716;2024-03-02T02:36:52;100800.24;;;8.55;63.95
85752;BME280;76192;39.766;2.716;2024-03-02T02:39:22;100800.09;;;8.58;63.96
85752;BME280;76192;39.766;2.716;2024-03-02T02:41:48;100798.33;;;8.61;63.78
85752;BME280;76192;39.766;2.716;2024-03-02T02:44:14;100801.06;;;8.61;63.86
85752;BME280;76192;39.766;2.716;2024-03-02T02:46:40;100798.61;;;8.60;63.94
85752;BME280;76192;39.766;2.716;2024-03-02T02:49:06;100795.02;;;8.55;63.71
85752;BME280;76192;39.766;2.716;2024-03-02T02:51:31;100797.91;;;8.52;64.13
85752;BME280;76192;39.766;2.716;2024-03-02T02:53:57;100794.84;;;8.49;64.40
85752;BME280;76192;39.766;2.716;2024-03-02T02:56:23;100793.09;;;8.44;64.80
85752;BME280;76192;39.766;2.716;2024-03-02T02:58:48;100791.70;;;8.40;64.47
85752;BME280;76192;39.766;2.716;2024-03-02T03:01:15;100788.75;;;8.36;64.65
85752;BME280;76192;39.766;2.716;2024-03-02T03:03:44;100786.00;;;8.32;64.86
85752;BME280;76192;39.766;2.716;2024-03-02T03:06:11;100788.02;;;8.29;64.98
85752;BME280;76192;39.766;2.716;2024-03-02T03:08:37;100778.27;;;8.24;65.04
85752;BME280;76192;39.766;2.716;2024-03-02T03:11:04;100784.88;;;8.20;65.17
85752;BME280;76192;39.766;2.716;2024-03-02T03:13:31;100785.20;;;8.17;65.02
85752;BME280;76192;39.766;2.716;2024-03-02T03:15:57;100775.08;;;8.12;65.43
85752;BME280;76192;39.766;2.716;2024-03-02T03:18:22;100776.60;;;8.08;65.65
85752;BME280;76192;39.766;2.716;2024-03-02T03:20:48;100779.63;;;8.04;66.00
85752;BME280;76192;39.766;2.716;2024-03-02T03:23:13;100775.85;;;8.00;66.61
85752;BME280;76192;39.766;2.716;2024-03-02T03:25:42;100775.64;;;7.96;66.34
85752;BME280;76192;39.766;2.716;2024-03-02T03:28:08;100774.89;;;7.92;66.66
85752;BME280;76192;39.766;2.716;2024-03-02T03:30:37;100775.03;;;7.88;67.12
85752;BME280;76192;39.766;2.716;2024-03-02T03:33:05;100771.82;;;7.85;67.12
85752;BME280;76192;39.766;2.716;2024-03-02T03:35:33;100769.81;;;7.82;67.68
85752;BME280;76192;39.766;2.716;2024-03-02T03:37:59;100767.79;;;7.79;67.76
85752;BME280;76192;39.766;2.716;2024-03-02T03:40:24;100762.84;;;7.76;67.72
85752;BME280;76192;39.766;2.716;2024-03-02T03:42:50;100761.33;;;7.73;68.33
85752;BME280;76192;39.766;2.716;2024-03-02T03:45:16;100760.55;;;7.71;68.09
85752;BME280;76192;39.766;2.716;2024-03-02T03:47:41;100767.08;;;7.69;68.01
85752;BME280;76192;39.766;2.716;2024-03-02T03:50:07;100765.76;;;7.67;68.26
85752;BME280;76192;39.766;2.716;2024-03-02T03:52:33;100761.88;;;7.64;68.26
85752;BME280;76192;39.766;2.716;2024-03-02T03:54:59;100758.81;;;7.61;68.56
85752;BME280;76192;39.766;2.716;2024-03-02T03:57:26;100753.16;;;7.56;68.05
85752;BME280;76192;39.766;2.716;2024-03-02T03:59:52;100749.94;;;7.53;68.59
85752;BME280;76192;39.766;2.716;2024-03-02T04:02:18;100753.18;;;7.50;68.68
85752;BME280;76192;39.766;2.716;2024-03-02T04:04:43;100752.73;;;7.48;68.88
85752;BME280;76192;39.766;2.716;2024-03-02T04:07:09;100752.42;;;7.46;68.99
85752;BME280;76192;39.766;2.716;2024-03-02T04:09:35;100748.23;;;7.47;69.51
85752;BME280;76192;39.766;2.716;2024-03-02T04:12:01;100750.55;;;7.49;69.25
85752;BME280;76192;39.766;2.716;2024-03-02T04:14:26;100751.58;;;7.52;69.24
85752;BME280;76192;39.766;2.716;2024-03-02T04:16:52;100747.39;;;7.56;69.17
85752;BME280;76192;39.766;2.716;2024-03-02T04:19:17;100750.42;;;7.62;69.26
85752;BME280;76192;39.766;2.716;2024-03-02T04:21:43;100754.51;;;7.69;68.90
85752;BME280;76192;39.766;2.716;2024-03-02T04:24:08;100754.78;;;7.74;68.84
85752;BME280;76192;39.766;2.716;2024-03-02T04:26:34;100757.02;;;7.78;68.70
85752;BME280;76192;39.766;2.716;2024-03-02T04:28:59;100757.27;;;7.80;68.37
85752;BME280;76192;39.766;2.716;2024-03-02T04:31:25;100753.21;;;7.80;68.36
85752;BME280;76192;39.766;2.716;2024-03-02T04:33:50;100756.94;;;7.80;68.08
85752;BME280;76192;39.766;2.716;2024-03-02T04:36:16;100756.03;;;7.78;68.51
85752;BME280;76192;39.766;2.716;2024-03-02T04:38:42;100751.01;;;7.77;68.40
85752;BME280;76192;39.766;2.716;2024-03-02T04:41:07;100748.00;;;7.74;68.43
85752;BME280;76192;39.766;2.716;2024-03-02T04:43:33;100753.84;;;7.72;68.45
85752;BME280;76192;39.766;2.716;2024-03-02T04:46:00;100753.55;;;7.70;68.43
85752;BME280;76192;39.766;2.716;2024-03-02T04:48:26;100755.11;;;7.67;68.50
85752;BME280;76192;39.766;2.716;2024-03-02T04:50:52;100752.55;;;7.64;68.62
85752;BME280;76192;39.766;2.716;2024-03-02T04:53:17;100752.88;;;7.61;68.73
85752;BME280;76192;39.766;2.716;2024-03-02T04:55:43;100750.61;;;7.57;68.99
85752;BME280;76192;39.766;2.716;2024-03-02T04:58:30;100746.84;;;7.52;68.83
85752;BME280;76192;39.766;2.716;2024-03-02T05:00:56;100738.88;;;7.49;69.30
85752;BME280;76192;39.766;2.716;2024-03-02T05:03:22;100733.90;;;7.45;69.57
85752;BME280;76192;39.766;2.716;2024-03-02T05:05:47;100740.23;;;7.43;69.65
85752;BME280;76192;39.766;2.716;2024-03-02T05:08:13;100739.20;;;7.40;69.70
85752;BME280;76192;39.766;2.716;2024-03-02T05:10:38;100725.67;;;7.38;69.96
85752;BME280;76192;39.766;2.716;2024-03-02T05:13:04;100728.61;;;7.35;70.01
85752;BME280;76192;39.766;2.716;2024-03-02T05:15:29;100735.15;;;7.34;70.62
85752;BME280;76192;39.766;2.716;2024-03-02T05:17:55;100732.41;;;7.30;70.74
85752;BME280;76192;39.766;2.716;2024-03-02T05:20:22;100729.73;;;7.28;70.72
85752;BME280;76192;39.766;2.716;2024-03-02T05:22:47;100732.69;;;7.26;70.91
85752;BME280;76192;39.766;2.716;2024-03-02T05:25:15;100733.12;;;7.25;71.33
85752;BME280;76192;39.766;2.716;2024-03-02T05:27:40;100737.13;;;7.24;71.37
85752;BME280;76192;39.766;2.716;2024-03-02T05:30:07;100728.20;;;7.22;70.86
85752;BME280;76192;39.766;2.716;2024-03-02T05:32:33;100729.08;;;7.19;70.69
85752;BME280;76192;39.766;2.716;2024-03-02T05:34:59;100734.15;;;7.19;70.85
85752;BME280;76192;39.766;2.716;2024-03-02T05:37:25;100728.97;;;7.17;70.83
85752;BME280;76192;39.766;2.716;2024-03-02T05:39:50;100730.26;;;7.16;70.93
85752;BME280;76192;39.766;2.716;2024-03-02T05:42:16;100725.10;;;7.15;71.07
85752;BME280;76192;39.766;2.716;2024-03-02T05:44:44;100726.70;;;7.16;70.61
85752;BME280;76192;39.766;2.716;2024-03-02T05:47:09;100727.55;;;7.19;70.62
85752;BME280;76192;39.766;2.716;2024-03-02T05:49:35;100721.50;;;7.23;70.46
85752;BME280;76192;39.766;2.716;2024-03-02T05:52:01;100720.06;;;7.31;70.41
85752;BME280;76192;39.766;2.716;2024-03-02T05:54:26;100723.40;;;7.39;70.26
85752;BME280;76192;39.766;2.716;2024-03-02T05:56:52;100725.55;;;7.48;70.42
85752;BME280;76192;39.766;2.716;2024-03-02T05:59:17;100715.93;;;7.55;70.31
85752;BME280;76192;39.766;2.716;2024-03-02T06:01:47;100715.94;;;7.62;69.66
85752;BME280;76192;39.766;2.716;2024-03-02T06:04:13;100709.83;;;7.68;69.72
85752;BME280;76192;39.766;2.716;2024-03-02T06:06:40;100708.48;;;7.71;69.46
85752;BME280;76192;39.766;2.716;2024-03-02T06:09:06;100706.23;;;7.74;69.24
85752;BME280;76192;39.766;2.716;2024-03-02T06:11:39;100704.28;;;7.75;69.07
85752;BME280;76192;39.766;2.716;2024-03-02T06:14:07;100712.20;;;7.78;68.46
85752;BME280;76192;39.766;2.716;2024-03-02T06:16:33;100706.96;;;7.78;68.85
85752;BME280;76192;39.766;2.716;2024-03-02T06:18:59;100705.68;;;7.80;68.76
85752;BME280;76192;39.766;2.716;2024-03-02T06:21:25;100706.20;;;7.80;68.84
85752;BME280;76192;39.766;2.716;2024-03-02T06:23:51;100710.95;;;7.80;68.52
85752;BME280;76192;39.766;2.716;2024-03-02T06:26:17;100710.83;;;7.81;68.67
85752;BME280;76192;39.766;2.716;2024-03-02T06:28:44;100713.12;;;7.82;68.58
85752;BME280;76192;39.766;2.716;2024-03-02T06:31:09;100717.94;;;7.83;68.20
85752;BME280;76192;39.766;2.716;2024-03-02T06:33:35;100722.71;;;7.84;68.01
85752;BME280;76192;39.766;2.716;2024-03-02T06:36:01;100729.84;;;7.84;68.27
85752;BME280;76192;39.766;2.716;2024-03-02T06:38:27;100729.30;;;7.84;67.82
85752;BME280;76192;39.766;2.716;2024-03-02T06:40:53;100717.70;;;7.85;67.28
85752;BME280;76192;39.766;2.716;2024-03-02T06:43:22;100713.98;;;7.89;67.08
85752;BME280;76192;39.766;2.716;2024-03-02T06:45:52;100716.72;;;7.93;67.14
85752;BME280;76192;39.766;2.716;2024-03-02T06:48:18;100718.16;;;7.97;67.08
85752;BME280;76192;39.766;2.716;2024-03-02T06:50:49;100723.07;;;8.00;66.70
85752;BME280;76192;39.766;2.716;2024-03-02T06:53:16;100727.79;;;8.04;67.10
85752;BME280;76192;39.766;2.716;2024-03-02T06:55:45;100721.06;;;8.05;67.36
85752;BME280;76192;39.766;2.716;2024-03-02T06:58:12;100716.69;;;8.05;67.37
85752;BME280;76192;39.766;2.716;2024-03-02T07:00:40;100717.68;;;8.05;67.72
85752;BME280;76192;39.766;2.716;2024-03-02T07:03:06;100717.04;;;8.06;67.44
85752;BME280;76192;39.766;2.716;2024-03-02T07:05:31;100712.17;;;8.07;67.69
85752;BME280;76192;39.766;2.716;2024-03-02T07:07:57;100713.95;;;8.08;66.98
85752;BME280;76192;39.766;2.716;2024-03-02T07:10:22;100710.02;;;8.11;67.30
85752;BME280;76192;39.766;2.716;2024-03-02T07:12:48;100709.83;;;8.14;66.88
85752;BME280;76192;39.766;2.716;2024-03-02T07:15:14;100714.10;;;8.18;66.76
85752;BME280;76192;39.766;2.716;2024-03-02T07:17:58;100710.30;;;8.23;66.32
85752;BME280;76192;39.766;2.716;2024-03-02T07:20:23;100707.48;;;8.28;66.78
85752;BME280;76192;39.766;2.716;2024-03-02T07:22:49;100704.63;;;8.32;66.93
85752;BME280;76192;39.766;2.716;2024-03-02T07:25:14;100712.49;;;8.33;67.13
85752;BME280;76192;39.766;2.716;2024-03-02T07:27:40;100709.09;;;8.33;67.14
85752;BME280;76192;39.766;2.716;2024-03-02T07:30:07;100706.33;;;8.32;66.94
85752;BME280;76192;39.766;2.716;2024-03-02T07:32:32;100700.18;;;8.31;67.05
85752;BME280;76192;39.766;2.716;2024-03-02T07:34:58;100697.45;;;8.32;67.33
85752;BME280;76192;39.766;2.716;2024-03-02T07:37:24;100691.55;;;8.32;67.39
85752;BME280;76192;39.766;2.716;2024-03-02T07:39:50;100697.88;;;8.33;67.54
85752;BME280;76192;39.766;2.716;2024-03-02T07:42:16;100699.01;;;8.35;67.49
85752;BME280;76192;39.766;2.716;2024-03-02T07:44:44;100699.08;;;8.39;67.58
85752;BME280;76192;39.766;2.716;2024-03-02T07:47:10;100693.73;;;8.44;67.66
85752;BME280;76192;39.766;2.716;2024-03-02T07:49:36;100701.06;;;8.52;67.42
85752;BME280;76192;39.766;2.716;2024-03-02T07:52:02;100701.47;;;8.60;67.27
85752;BME280;76192;39.766;2.716;2024-03-02T07:54:27;100698.42;;;8.68;67.04
85752;BME280;76192;39.766;2.716;2024-03-02T07:56:53;100702.33;;;8.78;66.94
85752;BME280;76192;39.766;2.716;2024-03-02T07:59:19;100700.39;;;8.87;67.06
85752;BME280;76192;39.766;2.716;2024-03-02T08:01:46;100702.83;;;8.96;67.15
85752;BME280;76192;39.766;2.716;2024-03-02T08:04:11;100703.02;;;9.03;66.77
85752;BME280;76192;39.766;2.716;2024-03-02T08:06:37;100710.52;;;9.11;66.37
85752;BME280;76192;39.766;2.716;2024-03-02T08:09:02;100716.33;;;9.19;65.99
85752;BME280;76192;39.766;2.716;2024-03-02T08:11:34;100711.42;;;9.27;66.02
85752;BME280;76192;39.766;2.716;2024-03-02T08:14:00;100710.35;;;9.33;66.06
85752;BME280;76192;39.766;2.716;2024-03-02T08:16:25;100715.75;;;9.39;65.67
85752;BME280;76192;39.766;2.716;2024-03-02T08:18:51;100704.48;;;9.46;65.45
85752;BME280;76192;39.766;2.716;2024-03-02T08:21:17;100709.95;;;9.54;65.56
85752;BME280;76192;39.766;2.716;2024-03-02T08:23:43;100704.58;;;9.60;65.80
85752;BME280;76192;39.766;2.716;2024-03-02T08:26:09;100703.37;;;9.67;65.61
85752;BME280;76192;39.766;2.716;2024-03-02T08:28:35;100701.61;;;9.73;65.37
85752;BME280;76192;39.766;2.716;2024-03-02T08:31:07;100699.86;;;9.80;64.95
85752;BME280;76192;39.766;2.716;2024-03-02T08:33:33;100705.59;;;9.87;65.19
85752;BME280;76192;39.766;2.716;2024-03-02T08:36:00;100705.77;;;9.94;65.08
85752;BME280;76192;39.766;2.716;2024-03-02T08:38:26;100701.00;;;10.02;65.04
85752;BME280;76192;39.766;2.716;2024-03-02T08:40:51;100697.65;;;10.11;63.93
85752;BME280;76192;39.766;2.716;2024-03-02T08:43:17;100692.95;;;10.21;63.71
85752;BME280;76192;39.766;2.716;2024-03-02T08:45:43;100695.30;;;10.32;63.39
85752;BME280;76192;39.766;2.716;2024-03-02T08:48:09;100689.05;;;10.42;63.05
85752;BME280;76192;39.766;2.716;2024-03-02T08:50:35;100685.04;;;10.51;62.70
85752;BME280;76192;39.766;2.716;2024-03-02T08:53:01;100684.77;;;10.62;62.49
85752;BME280;76192;39.766;2.716;2024-03-02T08:55:26;100681.41;;;10.71;62.06
85752;BME280;76192;39.766;2.716;2024-03-02T08:57:52;100675.73;;;10.83;61.28
85752;BME280;76192;39.766;2.716;2024-03-02T09:00:18;100675.90;;;10.96;61.16
85752;BME280;76192;39.766;2.716;2024-03-02T09:02:45;100671.08;;;11.08;60.58
85752;BME280;76192;39.766;2.716;2024-03-02T09:05:10;100665.48;;;11.23;60.37
85752;BME280;76192;39.766;2.716;2024-03-02T09:07:36;100666.88;;;11.37;59.82
85752;BME280;76192;39.766;2.716;2024-03-02T09:10:05;100664.06;;;11.53;59.25
85752;BME280;76192;39.766;2.716;2024-03-02T09:12:34;100664.88;;;11.72;59.11
85752;BME280;76192;39.766;2.716;2024-03-02T09:15:03;100663.63;;;11.88;58.48
85752;BME280;76192;39.766;2.716;2024-03-02T09:17:29;100657.55;;;12.05;58.06
85752;BME280;76192;39.766;2.716;2024-03-02T09:19:55;100652.63;;;12.21;58.04
85752;BME280;76192;39.766;2.716;2024-03-02T09:22:21;100651.72;;;12.35;57.47
85752;BME280;76192;39.766;2.716;2024-03-02T09:24:46;100646.45;;;12.47;57.10
85752;BME280;76192;39.766;2.716;2024-03-02T09:27:12;100643.30;;;12.60;56.53
85752;BME280;76192;39.766;2.716;2024-03-02T09:29:38;100635.49;;;12.73;55.57
85752;BME280;76192;39.766;2.716;2024-03-02T09:32:05;100630.63;;;12.87;54.69
85752;BME280;76192;39.766;2.716;2024-03-02T09:34:31;100631.27;;;13.03;53.61
85752;BME280;76192;39.766;2.716;2024-03-02T09:36:58;100636.13;;;13.22;52.16
85752;BME280;76192;39.766;2.716;2024-03-02T09:39:24;100632.59;;;13.41;51.17
85752;BME280;76192;39.766;2.716;2024-03-02T09:41:50;100629.54;;;13.61;50.53
85752;BME280;76192;39.766;2.716;2024-03-02T09:44:16;100625.02;;;13.78;50.12
85752;BME280;76192;39.766;2.716;2024-03-02T09:46:42;100628.83;;;13.92;49.40
85752;BME280;76192;39.766;2.716;2024-03-02T09:49:11;100626.80;;;14.06;48.08
85752;BME280;76192;39.766;2.716;2024-03-02T09:51:37;100618.42;;;14.21;47.75
85752;BME280;76192;39.766;2.716;2024-03-02T09:54:03;100609.79;;;14.32;47.21
85752;BME280;76192;39.766;2.716;2024-03-02T09:56:29;100617.65;;;14.46;46.45
85752;BME280;76192;39.766;2.716;2024-03-02T09:58:55;100624.66;;;14.58;46.23
85752;BME280;76192;39.766;2.716;2024-03-02T10:01:20;100629.88;;;14.69;46.10
85752;BME280;76192;39.766;2.716;2024-03-02T10:03:48;100625.14;;;14.79;44.97
85752;BME280;76192;39.766;2.716;2024-03-02T10:06:25;100628.13;;;14.90;44.04
85752;BME280;76192;39.766;2.716;2024-03-02T10:08:52;100624.45;;;15.02;43.48
85752;BME280;76192;39.766;2.716;2024-03-02T10:14:11;100609.44;;;15.23;42.81
85752;BME280;76192;39.766;2.716;2024-03-02T10:16:39;100600.17;;;15.32;42.56
85752;BME280;76192;39.766;2.716;2024-03-02T10:19:21;100601.88;;;15.40;43.11
85752;BME280;76192;39.766;2.716;2024-03-02T10:21:52;100596.70;;;15.48;42.41
85752;BME280;76192;39.766;2.716;2024-03-02T10:24:20;100598.05;;;15.55;41.96
85752;BME280;76192;39.766;2.716;2024-03-02T10:26:46;100599.20;;;15.62;41.75
85752;BME280;76192;39.766;2.716;2024-03-02T10:29:12;100596.59;;;15.67;41.83
85752;BME280;76192;39.766;2.716;2024-03-02T10:31:39;100582.78;;;15.73;41.34
85752;BME280;76192;39.766;2.716;2024-03-02T10:34:07;100573.77;;;15.79;40.98
85752;BME280;76192;39.766;2.716;2024-03-02T10:36:37;100567.65;;;15.83;40.99
85752;BME280;76192;39.766;2.716;2024-03-02T10:39:04;100585.98;;;15.89;40.86
85752;BME280;76192;39.766;2.716;2024-03-02T10:41:33;100576.80;;;15.95;40.55
85752;BME280;76192;39.766;2.716;2024-03-02T10:44:02;100583.27;;;16.01;40.12
85752;BME280;76192;39.766;2.716;2024-03-02T10:46:30;100579.05;;;16.06;39.87
85752;BME280;76192;39.766;2.716;2024-03-02T10:49:01;100564.50;;;16.10;39.36
85752;BME280;76192;39.766;2.716;2024-03-02T10:51:28;100563.58;;;16.16;39.33
85752;BME280;76192;39.766;2.716;2024-03-02T10:54:00;100557.28;;;16.21;38.75
85752;BME280;76192;39.766;2.716;2024-03-02T10:56:33;100552.88;;;16.26;38.48
85752;BME280;76192;39.766;2.716;2024-03-02T11:01:34;100548.21;;;16.36;38.86
85752;BME280;76192;39.766;2.716;2024-03-02T11:04:04;100546.20;;;16.39;38.65
85752;BME280;76192;39.766;2.716;2024-03-02T11:06:34;100546.28;;;16.45;38.95
85752;BME280;76192;39.766;2.716;2024-03-02T11:09:06;100541.02;;;16.50;38.69
85752;BME280;76192;39.766;2.716;2024-03-02T11:11:40;100541.25;;;16.53;38.63
85752;BME280;76192;39.766;2.716;2024-03-02T11:14:12;100539.40;;;16.56;38.62
85752;BME280;76192;39.766;2.716;2024-03-02T11:16:40;100532.73;;;16.60;38.98
85752;BME280;76192;39.766;2.716;2024-03-02T11:19:16;100531.77;;;16.65;39.51
85752;BME280;76192;39.766;2.716;2024-03-02T11:21:42;100519.93;;;16.69;39.44
85752;BME280;76192;39.766;2.716;2024-03-02T11:26:51;100511.92;;;16.74;39.16
85752;BME280;76192;39.766;2.716;2024-03-02T11:32:03;100512.41;;;16.83;39.88
85752;BME280;76192;39.766;2.716;2024-03-02T11:34:33;100509.54;;;16.87;39.79
85752;BME280;76192;39.766;2.716;2024-03-02T11:37:01;100507.32;;;16.90;39.63
85752;BME280;76192;39.766;2.716;2024-03-02T11:39:27;100504.27;;;16.93;40.09
85752;BME280;76192;39.766;2.716;2024-03-02T11:41:53;100508.27;;;16.96;40.02
85752;BME280;76192;39.766;2.716;2024-03-02T11:44:21;100495.91;;;17.00;40.02
85752;BME280;76192;39.766;2.716;2024-03-02T11:46:52;100487.17;;;17.05;40.43
85752;BME280;76192;39.766;2.716;2024-03-02T11:52:09;100481.45;;;17.16;40.56
85752;BME280;76192;39.766;2.716;2024-03-02T11:54:37;100474.42;;;17.21;40.76
85752;BME280;76192;39.766;2.716;2024-03-02T11:57:05;100471.04;;;17.25;40.87
85752;BME280;76192;39.766;2.716;2024-03-02T11:59:31;100458.16;;;17.30;40.83
85752;BME280;76192;39.766;2.716;2024-03-02T12:01:58;100465.95;;;17.33;40.67
85752;BME280;76192;39.766;2.716;2024-03-02T12:04:25;100458.05;;;17.37;40.61
85752;BME280;76192;39.766;2.716;2024-03-02T12:06:59;100469.29;;;17.41;40.49
85752;BME280;76192;39.766;2.716;2024-03-02T12:09:29;100464.70;;;17.48;40.21
85752;BME280;76192;39.766;2.716;2024-03-02T12:12:05;100460.44;;;17.52;39.90
85752;BME280;76192;39.766;2.716;2024-03-02T12:14:32;100449.42;;;17.55;39.97
85752;BME280;76192;39.766;2.716;2024-03-02T12:16:58;100447.76;;;17.62;40.02
85752;BME280;76192;39.766;2.716;2024-03-02T12:19:27;100447.84;;;17.72;40.34
85752;BME280;76192;39.766;2.716;2024-03-02T12:21:56;100449.32;;;17.81;40.32
85752;BME280;76192;39.766;2.716;2024-03-02T12:24:22;100442.14;;;17.91;40.36
85752;BME280;76192;39.766;2.716;2024-03-02T12:26:50;100435.65;;;18.00;40.54
85752;BME280;76192;39.766;2.716;2024-03-02T12:29:17;100441.92;;;18.10;40.26
85752;BME280;76192;39.766;2.716;2024-03-02T12:31:43;100435.59;;;18.19;39.90
85752;BME280;76192;39.766;2.716;2024-03-02T12:34:14;100434.96;;;18.29;39.58
85752;BME280;76192;39.766;2.716;2024-03-02T12:36:40;100423.26;;;18.37;39.48
85752;BME280;76192;39.766;2.716;2024-03-02T12:39:10;100408.95;;;18.42;39.56
85752;BME280;76192;39.766;2.716;2024-03-02T12:41:36;100396.05;;;18.51;39.90
85752;BME280;76192;39.766;2.716;2024-03-02T12:44:06;100396.78;;;18.64;39.91
85752;BME280;76192;39.766;2.716;2024-03-02T12:46:32;100397.04;;;18.80;39.21
85752;BME280;76192;39.766;2.716;2024-03-02T12:49:04;100388.77;;;18.95;39.07
85752;BME280;76192;39.766;2.716;2024-03-02T12:51:30;100385.34;;;19.10;38.04
85752;BME280;76192;39.766;2.716;2024-03-02T12:53:59;100384.14;;;19.24;37.67
85752;BME280;76192;39.766;2.716;2024-03-02T12:56:25;100379.30;;;19.41;37.88
85752;BME280;76192;39.766;2.716;2024-03-02T12:58:55;100374.98;;;19.61;37.76
85752;BME280;76192;39.766;2.716;2024-03-02T13:01:21;100370.46;;;19.83;37.57
85752;BME280;76192;39.766;2.716;2024-03-02T13:03:51;100364.87;;;20.06;37.28
85752;BME280;76192;39.766;2.716;2024-03-02T13:06:18;100371.16;;;20.31;36.44
85752;BME280;76192;39.766;2.716;2024-03-02T13:08:48;100354.48;;;20.51;35.79
85752;BME280;76192;39.766;2.716;2024-03-02T13:11:14;100367.41;;;20.64;35.37
85752;BME280;76192;39.766;2.716;2024-03-02T13:13:41;100360.43;;;20.72;35.54